sensor_id;sensor_type;location;lat;lon;timestamp;P1;durP1;ratioP1;P2;durP2;ratioP2
11496;SDS011;5805;51.542;7.230;2023-05-19T00:00:58;5.53;;;2.38;;
11496;SDS011;5805;51.542;7.230;2023-05-19T00:03:24;6.47;;;2.70;;
11496;SDS011;5805;51.542;7.230;2023-05-19T00:05:52;4.38;;;2.42;;
11496;SDS011;5805;51.542;7.230;2023-05-19T00:08:18;6.45;;;2.30;;
11496;SDS011;5805;51.542;7.230;2023-05-19T00:10:46;5.30;;;2.42;;
11496;SDS011;5805;51.542;7.230;2023-05-19T00:13:12;6.18;;;2.40;;
11496;SDS011;5805;51.542;7.230;2023-05-19T00:15:39;6.45;;;2.60;;
11496;SDS011;5805;51.542;7.230;2023-05-19T00:18:05;7.45;;;2.70;;
11496;SDS011;5805;51.542;7.230;2023-05-19T00:20:30;7.25;;;2.83;;
11496;SDS011;5805;51.542;7.230;2023-05-19T00:22:57;6.25;;;2.35;;
11496;SDS011;5805;51.542;7.230;2023-05-19T00:25:23;4.35;;;2.42;;
11496;SDS011;5805;51.542;7.230;2023-05-19T00:27:49;4.93;;;2.30;;
11496;SDS011;5805;51.542;7.230;2023-05-19T00:30:14;7.13;;;2.70;;
11496;SDS011;5805;51.542;7.230;2023-05-19T00:32:40;7.38;;;2.70;;
11496;SDS011;5805;51.542;7.230;2023-05-19T00:35:06;9.98;;;3.10;;
11496;SDS011;5805;51.542;7.230;2023-05-19T00:37:33;6.32;;;2.90;;
11496;SDS011;5805;51.542;7.230;2023-05-19T00:40:00;7.20;;;2.60;;
11496;SDS011;5805;51.542;7.230;2023-05-19T00:42:25;5.72;;;3.05;;
11496;SDS011;5805;51.542;7.230;2023-05-19T00:44:51;5.88;;;2.90;;
11496;SDS011;5805;51.542;7.230;2023-05-19T00:47:17;6.40;;;2.72;;
11496;SDS011;5805;51.542;7.230;2023-05-19T00:49:43;5.32;;;2.40;;
11496;SDS011;5805;51.542;7.230;2023-05-19T00:52:08;5.47;;;2.70;;
11496;SDS011;5805;51.542;7.230;2023-05-19T00:54:34;4.93;;;2.60;;
11496;SDS011;5805;51.542;7.230;2023-05-19T00:57:02;7.97;;;2.72;;
11496;SDS011;5805;51.542;7.230;2023-05-19T00:59:28;4.18;;;2.40;;
11496;SDS011;5805;51.542;7.230;2023-05-19T01:01:53;6.68;;;2.88;;
11496;SDS011;5805;51.542;7.230;2023-05-19T01:04:19;6.60;;;2.90;;
11496;SDS011;5805;51.542;7.230;2023-05-19T01:06:45;5.32;;;2.55;;
11496;SDS011;5805;51.542;7.230;2023-05-19T01:09:11;8.07;;;3.10;;
11496;SDS011;5805;51.542;7.230;2023-05-19T01:11:37;4.13;;;2.53;;
11496;SDS011;5805;51.542;7.230;2023-05-19T01:14:04;7.35;;;2.55;;
11496;SDS011;5805;51.542;7.230;2023-05-19T01:16:30;7.15;;;3.00;;
11496;SDS011;5805;51.542;7.230;2023-05-19T01:19:02;7.63;;;2.60;;
11496;SDS011;5805;51.542;7.230;2023-05-19T01:24:45;4.25;;;2.58;;
11496;SDS011;5805;51.542;7.230;2023-05-19T01:27:40;6.18;;;2.92;;
11496;SDS011;5805;51.542;7.230;2023-05-19T01:30:20;3.65;;;2.45;;
11496;SDS011;5805;51.542;7.230;2023-05-19T01:32:50;6.50;;;2.80;;
11496;SDS011;5805;51.542;7.230;2023-05-19T01:35:18;6.30;;;2.97;;
11496;SDS011;5805;51.542;7.230;2023-05-19T01:37:45;6.82;;;2.70;;
11496;SDS011;5805;51.542;7.230;2023-05-19T01:40:11;5.07;;;3.05;;
11496;SDS011;5805;51.542;7.230;2023-05-19T01:42:37;6.57;;;2.92;;
11496;SDS011;5805;51.542;7.230;2023-05-19T01:45:05;7.00;;;3.35;;
11496;SDS011;5805;51.542;7.230;2023-05-19T01:47:33;10.70;;;2.97;;
11496;SDS011;5805;51.542;7.230;2023-05-19T01:50:00;7.05;;;2.85;;
11496;SDS011;5805;51.542;7.230;2023-05-19T01:52:25;3.92;;;2.55;;
11496;SDS011;5805;51.542;7.230;2023-05-19T01:54:52;5.10;;;2.75;;
11496;SDS011;5805;51.542;7.230;2023-05-19T01:57:19;8.43;;;3.05;;
11496;SDS011;5805;51.542;7.230;2023-05-19T01:59:56;6.05;;;2.80;;
11496;SDS011;5805;51.542;7.230;2023-05-19T02:02:29;4.70;;;3.13;;
11496;SDS011;5805;51.542;7.230;2023-05-19T02:05:02;7.30;;;2.78;;
11496;SDS011;5805;51.542;7.230;2023-05-19T02:07:34;5.68;;;3.17;;
11496;SDS011;5805;51.542;7.230;2023-05-19T02:10:09;3.67;;;2.65;;
11496;SDS011;5805;51.542;7.230;2023-05-19T02:12:38;5.72;;;3.13;;
11496;SDS011;5805;51.542;7.230;2023-05-19T02:15:05;8.40;;;3.10;;
11496;SDS011;5805;51.542;7.230;2023-05-19T02:17:37;5.03;;;3.03;;
11496;SDS011;5805;51.542;7.230;2023-05-19T02:20:05;7.95;;;3.35;;
11496;SDS011;5805;51.542;7.230;2023-05-19T02:22:32;7.32;;;3.20;;
11496;SDS011;5805;51.542;7.230;2023-05-19T02:24:57;9.75;;;2.83;;
11496;SDS011;5805;51.542;7.230;2023-05-19T02:27:23;5.15;;;2.88;;
11496;SDS011;5805;51.542;7.230;2023-05-19T02:29:49;7.32;;;2.60;;
11496;SDS011;5805;51.542;7.230;2023-05-19T02:32:15;7.28;;;3.10;;
11496;SDS011;5805;51.542;7.230;2023-05-19T02:34:42;5.35;;;2.92;;
11496;SDS011;5805;51.542;7.230;2023-05-19T02:37:07;5.30;;;3.33;;
11496;SDS011;5805;51.542;7.230;2023-05-19T02:39:33;6.10;;;3.00;;
11496;SDS011;5805;51.542;7.230;2023-05-19T02:41:59;9.85;;;3.35;;
11496;SDS011;5805;51.542;7.230;2023-05-19T02:44:24;7.07;;;3.40;;
11496;SDS011;5805;51.542;7.230;2023-05-19T02:46:50;4.70;;;3.00;;
11496;SDS011;5805;51.542;7.230;2023-05-19T02:49:16;10.75;;;3.63;;
11496;SDS011;5805;51.542;7.230;2023-05-19T02:51:43;7.20;;;3.53;;
11496;SDS011;5805;51.542;7.230;2023-05-19T02:54:09;6.47;;;3.17;;
11496;SDS011;5805;51.542;7.230;2023-05-19T02:56:34;8.88;;;3.88;;
11496;SDS011;5805;51.542;7.230;2023-05-19T02:59:00;6.20;;;3.25;;
11496;SDS011;5805;51.542;7.230;2023-05-19T03:01:26;7.38;;;3.50;;
11496;SDS011;5805;51.542;7.230;2023-05-19T03:03:51;6.70;;;3.42;;
11496;SDS011;5805;51.542;7.230;2023-05-19T03:06:17;6.45;;;3.20;;
11496;SDS011;5805;51.542;7.230;2023-05-19T03:08:44;7.97;;;3.90;;
11496;SDS011;5805;51.542;7.230;2023-05-19T03:11:10;5.60;;;3.20;;
11496;SDS011;5805;51.542;7.230;2023-05-19T03:13:35;6.32;;;3.30;;
11496;SDS011;5805;51.542;7.230;2023-05-19T03:16:01;9.45;;;3.17;;
11496;SDS011;5805;51.542;7.230;2023-05-19T03:18:27;15.32;;;3.92;;
11496;SDS011;5805;51.542;7.230;2023-05-19T03:20:52;5.43;;;3.00;;
11496;SDS011;5805;51.542;7.230;2023-05-19T03:23:18;7.13;;;3.05;;
11496;SDS011;5805;51.542;7.230;2023-05-19T03:25:45;6.38;;;3.58;;
11496;SDS011;5805;51.542;7.230;2023-05-19T03:28:11;7.03;;;3.53;;
11496;SDS011;5805;51.542;7.230;2023-05-19T03:30:37;7.82;;;3.92;;
11496;SDS011;5805;51.542;7.230;2023-05-19T03:33:02;7.78;;;3.40;;
11496;SDS011;5805;51.542;7.230;2023-05-19T03:35:28;9.65;;;3.67;;
11496;SDS011;5805;51.542;7.230;2023-05-19T03:37:54;6.03;;;3.30;;
11496;SDS011;5805;51.542;7.230;2023-05-19T03:40:19;6.10;;;3.45;;
11496;SDS011;5805;51.542;7.230;2023-05-19T03:42:46;8.05;;;3.50;;
11496;SDS011;5805;51.542;7.230;2023-05-19T03:45:12;8.25;;;4.20;;
11496;SDS011;5805;51.542;7.230;2023-05-19T03:47:38;7.57;;;3.47;;
11496;SDS011;5805;51.542;7.230;2023-05-19T03:50:04;4.82;;;3.47;;
11496;SDS011;5805;51.542;7.230;2023-05-19T03:52:30;10.15;;;4.10;;
11496;SDS011;5805;51.542;7.230;2023-05-19T03:54:56;5.63;;;3.30;;
11496;SDS011;5805;51.542;7.230;2023-05-19T03:57:22;7.88;;;3.47;;
11496;SDS011;5805;51.542;7.230;2023-05-19T03:59:49;6.25;;;3.38;;
11496;SDS011;5805;51.542;7.230;2023-05-19T04:02:14;6.07;;;3.50;;
11496;SDS011;5805;51.542;7.230;2023-05-19T04:04:40;5.45;;;4.20;;
11496;SDS011;5805;51.542;7.230;2023-05-19T04:07:06;6.30;;;3.83;;
11496;SDS011;5805;51.542;7.230;2023-05-19T04:09:31;7.82;;;4.00;;
11496;SDS011;5805;51.542;7.230;2023-05-19T04:11:57;5.95;;;3.90;;
11496;SDS011;5805;51.542;7.230;2023-05-19T04:14:23;9.13;;;3.90;;
11496;SDS011;5805;51.542;7.230;2023-05-19T04:16:50;5.78;;;3.95;;
11496;SDS011;5805;51.542;7.230;2023-05-19T04:19:16;9.35;;;3.90;;
11496;SDS011;5805;51.542;7.230;2023-05-19T04:21:41;6.47;;;3.97;;
11496;SDS011;5805;51.542;7.230;2023-05-19T04:24:07;5.55;;;3.58;;
11496;SDS011;5805;51.542;7.230;2023-05-19T04:26:33;9.02;;;4.47;;
11496;SDS011;5805;51.542;7.230;2023-05-19T04:28:58;6.60;;;3.80;;
11496;SDS011;5805;51.542;7.230;2023-05-19T04:31:24;6.85;;;4.03;;
11496;SDS011;5805;51.542;7.230;2023-05-19T04:33:51;8.45;;;4.20;;
11496;SDS011;5805;51.542;7.230;2023-05-19T04:36:17;11.00;;;4.22;;
11496;SDS011;5805;51.542;7.230;2023-05-19T04:38:43;8.60;;;4.28;;
11496;SDS011;5805;51.542;7.230;2023-05-19T04:41:08;6.25;;;4.35;;
11496;SDS011;5805;51.542;7.230;2023-05-19T04:43:34;7.53;;;4.22;;
11496;SDS011;5805;51.542;7.230;2023-05-19T04:46:00;10.00;;;4.22;;
11496;SDS011;5805;51.542;7.230;2023-05-19T04:48:26;5.68;;;4.03;;
11496;SDS011;5805;51.542;7.230;2023-05-19T04:50:53;8.07;;;4.43;;
11496;SDS011;5805;51.542;7.230;2023-05-19T04:53:19;5.65;;;3.88;;
11496;SDS011;5805;51.542;7.230;2023-05-19T04:55:44;7.32;;;3.85;;
11496;SDS011;5805;51.542;7.230;2023-05-19T04:58:10;8.82;;;4.05;;
11496;SDS011;5805;51.542;7.230;2023-05-19T05:00:36;5.75;;;4.25;;
11496;SDS011;5805;51.542;7.230;2023-05-19T05:03:01;8.02;;;3.85;;
11496;SDS011;5805;51.542;7.230;2023-05-19T05:05:27;8.93;;;4.22;;
11496;SDS011;5805;51.542;7.230;2023-05-19T05:07:54;6.03;;;4.10;;
11496;SDS011;5805;51.542;7.230;2023-05-19T05:10:20;10.10;;;5.00;;
11496;SDS011;5805;51.542;7.230;2023-05-19T05:12:46;7.95;;;3.90;;
11496;SDS011;5805;51.542;7.230;2023-05-19T05:15:12;10.55;;;5.05;;
11496;SDS011;5805;51.542;7.230;2023-05-19T05:17:38;9.23;;;4.55;;
11496;SDS011;5805;51.542;7.230;2023-05-19T05:20:05;7.28;;;4.15;;
11496;SDS011;5805;51.542;7.230;2023-05-19T05:22:32;7.00;;;4.40;;
11496;SDS011;5805;51.542;7.230;2023-05-19T05:25:00;5.93;;;3.92;;
11496;SDS011;5805;51.542;7.230;2023-05-19T05:27:27;8.43;;;4.63;;
11496;SDS011;5805;51.542;7.230;2023-05-19T05:29:52;5.63;;;4.05;;
11496;SDS011;5805;51.542;7.230;2023-05-19T05:32:18;7.15;;;4.10;;
11496;SDS011;5805;51.542;7.230;2023-05-19T05:34:44;7.38;;;3.80;;
11496;SDS011;5805;51.542;7.230;2023-05-19T05:37:10;11.30;;;4.45;;
11496;SDS011;5805;51.542;7.230;2023-05-19T05:39:35;6.20;;;4.03;;
11496;SDS011;5805;51.542;7.230;2023-05-19T05:42:02;8.93;;;4.03;;
11496;SDS011;5805;51.542;7.230;2023-05-19T05:44:28;8.77;;;4.13;;
11496;SDS011;5805;51.542;7.230;2023-05-19T05:46:54;10.52;;;4.15;;
11496;SDS011;5805;51.542;7.230;2023-05-19T05:49:20;10.57;;;3.97;;
11496;SDS011;5805;51.542;7.230;2023-05-19T05:51:47;7.78;;;4.68;;
11496;SDS011;5805;51.542;7.230;2023-05-19T05:54:13;9.82;;;4.35;;
11496;SDS011;5805;51.542;7.230;2023-05-19T05:56:42;7.32;;;4.40;;
11496;SDS011;5805;51.542;7.230;2023-05-19T05:59:09;9.95;;;3.60;;
11496;SDS011;5805;51.542;7.230;2023-05-19T06:01:35;9.38;;;4.20;;
11496;SDS011;5805;51.542;7.230;2023-05-19T06:04:01;7.15;;;3.25;;
11496;SDS011;5805;51.542;7.230;2023-05-19T06:06:26;7.97;;;3.15;;
11496;SDS011;5805;51.542;7.230;2023-05-19T06:08:52;7.57;;;4.00;;
11496;SDS011;5805;51.542;7.230;2023-05-19T06:11:18;8.05;;;3.60;;
11496;SDS011;5805;51.542;7.230;2023-05-19T06:13:44;10.10;;;3.88;;
11496;SDS011;5805;51.542;7.230;2023-05-19T06:16:11;11.52;;;4.18;;
11496;SDS011;5805;51.542;7.230;2023-05-19T06:18:36;4.97;;;3.42;;
11496;SDS011;5805;51.542;7.230;2023-05-19T06:21:02;4.80;;;2.95;;
11496;SDS011;5805;51.542;7.230;2023-05-19T06:23:28;8.98;;;3.22;;
11496;SDS011;5805;51.542;7.230;2023-05-19T06:25:54;10.75;;;3.30;;
11496;SDS011;5805;51.542;7.230;2023-05-19T06:28:20;6.82;;;3.03;;
11496;SDS011;5805;51.542;7.230;2023-05-19T06:30:45;6.88;;;2.97;;
11496;SDS011;5805;51.542;7.230;2023-05-19T06:33:13;7.07;;;3.20;;
11496;SDS011;5805;51.542;7.230;2023-05-19T06:35:38;5.07;;;3.35;;
11496;SDS011;5805;51.542;7.230;2023-05-19T06:38:04;4.07;;;2.63;;
11496;SDS011;5805;51.542;7.230;2023-05-19T06:40:30;5.90;;;2.97;;
11496;SDS011;5805;51.542;7.230;2023-05-19T06:42:55;5.80;;;2.80;;
11496;SDS011;5805;51.542;7.230;2023-05-19T06:45:22;5.75;;;3.28;;
11496;SDS011;5805;51.542;7.230;2023-05-19T06:47:48;5.55;;;2.80;;
11496;SDS011;5805;51.542;7.230;2023-05-19T06:50:15;6.47;;;3.30;;
11496;SDS011;5805;51.542;7.230;2023-05-19T06:52:40;5.20;;;2.92;;
11496;SDS011;5805;51.542;7.230;2023-05-19T06:55:06;7.45;;;3.10;;
11496;SDS011;5805;51.542;7.230;2023-05-19T06:57:32;5.72;;;3.22;;
11496;SDS011;5805;51.542;7.230;2023-05-19T06:59:58;7.93;;;3.55;;
11496;SDS011;5805;51.542;7.230;2023-05-19T07:02:24;6.13;;;3.22;;
11496;SDS011;5805;51.542;7.230;2023-05-19T07:04:49;3.65;;;2.60;;
11496;SDS011;5805;51.542;7.230;2023-05-19T07:07:16;7.90;;;2.88;;
11496;SDS011;5805;51.542;7.230;2023-05-19T07:09:42;8.05;;;3.10;;
11496;SDS011;5805;51.542;7.230;2023-05-19T07:12:08;5.82;;;2.65;;
11496;SDS011;5805;51.542;7.230;2023-05-19T07:14:33;6.32;;;2.72;;
11496;SDS011;5805;51.542;7.230;2023-05-19T07:16:59;7.15;;;3.35;;
11496;SDS011;5805;51.542;7.230;2023-05-19T07:19:25;8.15;;;2.70;;
11496;SDS011;5805;51.542;7.230;2023-05-19T07:21:50;5.93;;;2.72;;
11496;SDS011;5805;51.542;7.230;2023-05-19T07:24:18;9.82;;;2.97;;
11496;SDS011;5805;51.542;7.230;2023-05-19T07:26:43;6.53;;;2.50;;
11496;SDS011;5805;51.542;7.230;2023-05-19T07:29:09;4.43;;;2.72;;
11496;SDS011;5805;51.542;7.230;2023-05-19T07:31:35;6.78;;;2.42;;
11496;SDS011;5805;51.542;7.230;2023-05-19T07:34:01;7.95;;;3.05;;
11496;SDS011;5805;51.542;7.230;2023-05-19T07:36:27;4.95;;;2.38;;
11496;SDS011;5805;51.542;7.230;2023-05-19T07:38:53;4.50;;;2.00;;
11496;SDS011;5805;51.542;7.230;2023-05-19T07:41:20;8.65;;;2.53;;
11496;SDS011;5805;51.542;7.230;2023-05-19T07:43:46;6.75;;;2.10;;
11496;SDS011;5805;51.542;7.230;2023-05-19T07:46:11;7.75;;;2.30;;
11496;SDS011;5805;51.542;7.230;2023-05-19T07:48:37;5.22;;;1.83;;
11496;SDS011;5805;51.542;7.230;2023-05-19T07:51:03;6.90;;;1.75;;
11496;SDS011;5805;51.542;7.230;2023-05-19T07:53:28;5.40;;;2.00;;
11496;SDS011;5805;51.542;7.230;2023-05-19T07:55:54;5.40;;;2.42;;
11496;SDS011;5805;51.542;7.230;2023-05-19T07:58:21;5.65;;;2.13;;
11496;SDS011;5805;51.542;7.230;2023-05-19T08:00:47;5.20;;;2.20;;
11496;SDS011;5805;51.542;7.230;2023-05-19T08:03:13;6.78;;;1.77;;
11496;SDS011;5805;51.542;7.230;2023-05-19T08:05:38;8.73;;;2.15;;
11496;SDS011;5805;51.542;7.230;2023-05-19T08:08:04;7.55;;;2.38;;
11496;SDS011;5805;51.542;7.230;2023-05-19T08:10:30;3.80;;;1.92;;
11496;SDS011;5805;51.542;7.230;2023-05-19T08:12:55;5.68;;;2.38;;
11496;SDS011;5805;51.542;7.230;2023-05-19T08:15:23;6.00;;;2.53;;
11496;SDS011;5805;51.542;7.230;2023-05-19T08:17:48;7.65;;;2.45;;
11496;SDS011;5805;51.542;7.230;2023-05-19T08:20:14;5.07;;;2.30;;
11496;SDS011;5805;51.542;7.230;2023-05-19T08:22:40;6.10;;;2.20;;
11496;SDS011;5805;51.542;7.230;2023-05-19T08:25:05;7.05;;;2.28;;
11496;SDS011;5805;51.542;7.230;2023-05-19T08:27:31;4.60;;;2.08;;
11496;SDS011;5805;51.542;7.230;2023-05-19T08:29:57;3.95;;;1.90;;
11496;SDS011;5805;51.542;7.230;2023-05-19T08:32:24;4.75;;;1.92;;
11496;SDS011;5805;51.542;7.230;2023-05-19T08:34:50;7.05;;;2.03;;
11496;SDS011;5805;51.542;7.230;2023-05-19T08:37:16;5.80;;;2.03;;
11496;SDS011;5805;51.542;7.230;2023-05-19T08:39:42;3.00;;;1.67;;
11496;SDS011;5805;51.542;7.230;2023-05-19T08:42:07;6.03;;;1.85;;
11496;SDS011;5805;51.542;7.230;2023-05-19T08:44:33;6.50;;;1.70;;
11496;SDS011;5805;51.542;7.230;2023-05-19T08:47:00;4.00;;;1.60;;
11496;SDS011;5805;51.542;7.230;2023-05-19T08:49:30;4.72;;;1.60;;
11496;SDS011;5805;51.542;7.230;2023-05-19T08:51:59;3.60;;;1.70;;
11496;SDS011;5805;51.542;7.230;2023-05-19T08:54:33;4.50;;;1.65;;
11496;SDS011;5805;51.542;7.230;2023-05-19T08:57:04;4.05;;;1.52;;
11496;SDS011;5805;51.542;7.230;2023-05-19T08:59:30;5.53;;;1.52;;
11496;SDS011;5805;51.542;7.230;2023-05-19T09:01:57;6.00;;;1.80;;
11496;SDS011;5805;51.542;7.230;2023-05-19T09:04:23;4.50;;;1.95;;
11496;SDS011;5805;51.542;7.230;2023-05-19T09:06:51;6.30;;;1.80;;
11496;SDS011;5805;51.542;7.230;2023-05-19T09:09:17;4.90;;;1.58;;
11496;SDS011;5805;51.542;7.230;2023-05-19T09:11:44;6.22;;;2.10;;
11496;SDS011;5805;51.542;7.230;2023-05-19T09:14:10;4.35;;;1.60;;
11496;SDS011;5805;51.542;7.230;2023-05-19T09:16:36;4.47;;;1.80;;
11496;SDS011;5805;51.542;7.230;2023-05-19T09:19:01;2.95;;;1.40;;
11496;SDS011;5805;51.542;7.230;2023-05-19T09:21:27;5.63;;;1.77;;
11496;SDS011;5805;51.542;7.230;2023-05-19T09:23:54;5.90;;;1.60;;
11496;SDS011;5805;51.542;7.230;2023-05-19T09:26:20;3.22;;;1.45;;
11496;SDS011;5805;51.542;7.230;2023-05-19T09:28:46;4.05;;;1.48;;
11496;SDS011;5805;51.542;7.230;2023-05-19T09:31:12;2.53;;;1.30;;
11496;SDS011;5805;51.542;7.230;2023-05-19T09:33:38;4.43;;;1.42;;
11496;SDS011;5805;51.542;7.230;2023-05-19T09:36:05;6.10;;;1.98;;
11496;SDS011;5805;51.542;7.230;2023-05-19T09:38:31;7.03;;;1.70;;
11496;SDS011;5805;51.542;7.230;2023-05-19T09:40:58;6.43;;;1.50;;
11496;SDS011;5805;51.542;7.230;2023-05-19T09:43:25;2.22;;;1.50;;
11496;SDS011;5805;51.542;7.230;2023-05-19T09:45:53;3.67;;;1.50;;
11496;SDS011;5805;51.542;7.230;2023-05-19T09:48:19;4.28;;;1.67;;
11496;SDS011;5805;51.542;7.230;2023-05-19T09:50:45;5.15;;;1.60;;
11496;SDS011;5805;51.542;7.230;2023-05-19T09:53:13;3.35;;;1.38;;
11496;SDS011;5805;51.542;7.230;2023-05-19T09:55:38;4.47;;;1.52;;
11496;SDS011;5805;51.542;7.230;2023-05-19T09:58:06;6.57;;;1.73;;
11496;SDS011;5805;51.542;7.230;2023-05-19T10:00:31;3.45;;;1.40;;
11496;SDS011;5805;51.542;7.230;2023-05-19T10:02:58;2.40;;;1.33;;
11496;SDS011;5805;51.542;7.230;2023-05-19T10:05:25;3.40;;;1.30;;
11496;SDS011;5805;51.542;7.230;2023-05-19T10:07:52;3.03;;;1.35;;
11496;SDS011;5805;51.542;7.230;2023-05-19T10:10:19;3.15;;;1.30;;
11496;SDS011;5805;51.542;7.230;2023-05-19T10:12:46;4.32;;;1.92;;
11496;SDS011;5805;51.542;7.230;2023-05-19T10:15:14;5.32;;;1.65;;
11496;SDS011;5805;51.542;7.230;2023-05-19T10:17:41;3.08;;;1.50;;
11496;SDS011;5805;51.542;7.230;2023-05-19T10:20:08;3.15;;;1.55;;
11496;SDS011;5805;51.542;7.230;2023-05-19T10:22:35;2.00;;;1.27;;
11496;SDS011;5805;51.542;7.230;2023-05-19T10:25:02;1.98;;;1.23;;
11496;SDS011;5805;51.542;7.230;2023-05-19T10:27:27;11.82;;;2.33;;
11496;SDS011;5805;51.542;7.230;2023-05-19T10:29:56;4.30;;;1.60;;
11496;SDS011;5805;51.542;7.230;2023-05-19T10:32:27;4.65;;;1.88;;
11496;SDS011;5805;51.542;7.230;2023-05-19T10:35:09;5.18;;;1.58;;
11496;SDS011;5805;51.542;7.230;2023-05-19T10:37:43;3.58;;;1.63;;
11496;SDS011;5805;51.542;7.230;2023-05-19T10:40:17;3.78;;;1.83;;
11496;SDS011;5805;51.542;7.230;2023-05-19T10:42:52;8.63;;;1.77;;
11496;SDS011;5805;51.542;7.230;2023-05-19T10:45:40;5.28;;;1.85;;
11496;SDS011;5805;51.542;7.230;2023-05-19T10:48:14;4.10;;;1.60;;
11496;SDS011;5805;51.542;7.230;2023-05-19T10:50:42;2.40;;;1.48;;
11496;SDS011;5805;51.542;7.230;2023-05-19T10:53:12;3.85;;;1.40;;
11496;SDS011;5805;51.542;7.230;2023-05-19T10:55:46;4.10;;;1.60;;
11496;SDS011;5805;51.542;7.230;2023-05-19T10:58:15;3.42;;;1.60;;
11496;SDS011;5805;51.542;7.230;2023-05-19T11:01:01;4.78;;;1.40;;
11496;SDS011;5805;51.542;7.230;2023-05-19T11:03:33;4.38;;;1.50;;
11496;SDS011;5805;51.542;7.230;2023-05-19T11:06:17;3.25;;;1.50;;
11496;SDS011;5805;51.542;7.230;2023-05-19T11:08:44;4.40;;;1.70;;
11496;SDS011;5805;51.542;7.230;2023-05-19T11:11:13;5.65;;;1.90;;
11496;SDS011;5805;51.542;7.230;2023-05-19T11:13:40;4.03;;;1.77;;
11496;SDS011;5805;51.542;7.230;2023-05-19T11:16:10;3.15;;;1.52;;
11496;SDS011;5805;51.542;7.230;2023-05-19T11:18:37;8.77;;;1.70;;
11496;SDS011;5805;51.542;7.230;2023-05-19T11:21:03;2.60;;;1.42;;
11496;SDS011;5805;51.542;7.230;2023-05-19T11:23:31;3.38;;;1.33;;
11496;SDS011;5805;51.542;7.230;2023-05-19T11:25:57;4.50;;;1.63;;
11496;SDS011;5805;51.542;7.230;2023-05-19T11:28:26;4.53;;;1.33;;
11496;SDS011;5805;51.542;7.230;2023-05-19T11:30:53;3.97;;;1.52;;
11496;SDS011;5805;51.542;7.230;2023-05-19T11:33:20;4.38;;;1.80;;
11496;SDS011;5805;51.542;7.230;2023-05-19T11:35:47;3.55;;;1.40;;
11496;SDS011;5805;51.542;7.230;2023-05-19T11:38:15;3.45;;;1.70;;
11496;SDS011;5805;51.542;7.230;2023-05-19T11:40:42;3.30;;;1.58;;
11496;SDS011;5805;51.542;7.230;2023-05-19T11:43:08;9.70;;;1.70;;
11496;SDS011;5805;51.542;7.230;2023-05-19T11:45:34;3.70;;;1.67;;
11496;SDS011;5805;51.542;7.230;2023-05-19T11:48:00;3.95;;;1.80;;
11496;SDS011;5805;51.542;7.230;2023-05-19T11:50:26;3.75;;;1.58;;
11496;SDS011;5805;51.542;7.230;2023-05-19T11:52:53;4.93;;;1.60;;
11496;SDS011;5805;51.542;7.230;2023-05-19T11:55:19;4.57;;;1.60;;
11496;SDS011;5805;51.542;7.230;2023-05-19T11:57:55;4.28;;;1.67;;
11496;SDS011;5805;51.542;7.230;2023-05-19T12:00:22;6.07;;;1.75;;
11496;SDS011;5805;51.542;7.230;2023-05-19T12:02:47;6.38;;;1.90;;
11496;SDS011;5805;51.542;7.230;2023-05-19T12:05:16;4.18;;;1.88;;
11496;SDS011;5805;51.542;7.230;2023-05-19T12:07:43;12.50;;;1.90;;
11496;SDS011;5805;51.542;7.230;2023-05-19T12:10:11;3.60;;;1.98;;
11496;SDS011;5805;51.542;7.230;2023-05-19T12:12:37;5.13;;;1.92;;
11496;SDS011;5805;51.542;7.230;2023-05-19T12:15:04;6.85;;;2.30;;
11496;SDS011;5805;51.542;7.230;2023-05-19T12:17:31;4.15;;;1.67;;
11496;SDS011;5805;51.542;7.230;2023-05-19T12:19:57;3.22;;;1.90;;
11496;SDS011;5805;51.542;7.230;2023-05-19T12:22:23;6.63;;;1.92;;
11496;SDS011;5805;51.542;7.230;2023-05-19T12:24:48;4.15;;;1.88;;
11496;SDS011;5805;51.542;7.230;2023-05-19T12:27:17;3.15;;;1.27;;
11496;SDS011;5805;51.542;7.230;2023-05-19T12:29:48;3.58;;;1.85;;
11496;SDS011;5805;51.542;7.230;2023-05-19T12:32:14;3.28;;;1.40;;
11496;SDS011;5805;51.542;7.230;2023-05-19T12:34:40;4.35;;;2.05;;
11496;SDS011;5805;51.542;7.230;2023-05-19T12:37:06;3.22;;;1.38;;
11496;SDS011;5805;51.542;7.230;2023-05-19T12:39:32;6.15;;;1.60;;
11496;SDS011;5805;51.542;7.230;2023-05-19T12:42:01;3.80;;;1.52;;
11496;SDS011;5805;51.542;7.230;2023-05-19T12:44:28;5.97;;;1.80;;
11496;SDS011;5805;51.542;7.230;2023-05-19T12:46:55;3.83;;;1.50;;
11496;SDS011;5805;51.542;7.230;2023-05-19T12:49:21;6.40;;;1.48;;
11496;SDS011;5805;51.542;7.230;2023-05-19T12:51:50;4.85;;;1.67;;
11496;SDS011;5805;51.542;7.230;2023-05-19T12:54:17;3.10;;;1.40;;
11496;SDS011;5805;51.542;7.230;2023-05-19T12:56:48;4.85;;;1.63;;
11496;SDS011;5805;51.542;7.230;2023-05-19T12:59:19;4.75;;;1.50;;
11496;SDS011;5805;51.542;7.230;2023-05-19T13:01:54;3.53;;;1.50;;
11496;SDS011;5805;51.542;7.230;2023-05-19T13:04:20;3.60;;;1.38;;
11496;SDS011;5805;51.542;7.230;2023-05-19T13:06:46;3.88;;;1.85;;
11496;SDS011;5805;51.542;7.230;2023-05-19T13:09:11;3.58;;;1.48;;
11496;SDS011;5805;51.542;7.230;2023-05-19T13:11:37;2.70;;;1.40;;
11496;SDS011;5805;51.542;7.230;2023-05-19T13:14:03;4.30;;;1.65;;
11496;SDS011;5805;51.542;7.230;2023-05-19T13:16:28;3.05;;;1.58;;
11496;SDS011;5805;51.542;7.230;2023-05-19T13:18:56;6.63;;;1.65;;
11496;SDS011;5805;51.542;7.230;2023-05-19T13:21:21;2.97;;;1.65;;
11496;SDS011;5805;51.542;7.230;2023-05-19T13:23:47;2.10;;;1.58;;
11496;SDS011;5805;51.542;7.230;2023-05-19T13:26:13;4.53;;;1.80;;
11496;SDS011;5805;51.542;7.230;2023-05-19T13:28:38;5.65;;;2.00;;
11496;SDS011;5805;51.542;7.230;2023-05-19T13:31:04;3.33;;;1.65;;
11496;SDS011;5805;51.542;7.230;2023-05-19T13:33:30;6.57;;;1.65;;
11496;SDS011;5805;51.542;7.230;2023-05-19T13:35:57;3.05;;;1.60;;
11496;SDS011;5805;51.542;7.230;2023-05-19T13:38:23;3.35;;;1.58;;
11496;SDS011;5805;51.542;7.230;2023-05-19T13:40:49;2.78;;;1.35;;
11496;SDS011;5805;51.542;7.230;2023-05-19T13:43:15;3.38;;;1.30;;
11496;SDS011;5805;51.542;7.230;2023-05-19T13:45:40;10.57;;;1.70;;
11496;SDS011;5805;51.542;7.230;2023-05-19T13:48:06;4.38;;;1.60;;
11496;SDS011;5805;51.542;7.230;2023-05-19T13:50:32;2.65;;;1.30;;
11496;SDS011;5805;51.542;7.230;2023-05-19T13:52:59;1.85;;;1.30;;
11496;SDS011;5805;51.542;7.230;2023-05-19T13:55:25;2.15;;;1.40;;
11496;SDS011;5805;51.542;7.230;2023-05-19T13:57:50;6.30;;;1.70;;
11496;SDS011;5805;51.542;7.230;2023-05-19T14:00:16;2.53;;;1.35;;
11496;SDS011;5805;51.542;7.230;2023-05-19T14:02:43;2.30;;;1.33;;
11496;SDS011;5805;51.542;7.230;2023-05-19T14:05:08;3.15;;;1.52;;
11496;SDS011;5805;51.542;7.230;2023-05-19T14:07:34;3.08;;;1.63;;
11496;SDS011;5805;51.542;7.230;2023-05-19T14:10:01;2.72;;;1.30;;
11496;SDS011;5805;51.542;7.230;2023-05-19T14:12:28;5.70;;;1.58;;
11496;SDS011;5805;51.542;7.230;2023-05-19T14:14:53;5.05;;;1.23;;
11496;SDS011;5805;51.542;7.230;2023-05-19T14:17:19;4.78;;;1.67;;
11496;SDS011;5805;51.542;7.230;2023-05-19T14:19:45;2.17;;;1.13;;
11496;SDS011;5805;51.542;7.230;2023-05-19T14:22:10;7.28;;;1.60;;
11496;SDS011;5805;51.542;7.230;2023-05-19T14:24:36;5.38;;;1.60;;
11496;SDS011;5805;51.542;7.230;2023-05-19T14:27:03;2.60;;;1.40;;
11496;SDS011;5805;51.542;7.230;2023-05-19T14:29:29;3.28;;;1.50;;
11496;SDS011;5805;51.542;7.230;2023-05-19T14:31:55;2.15;;;1.30;;
11496;SDS011;5805;51.542;7.230;2023-05-19T14:34:21;4.45;;;1.50;;
11496;SDS011;5805;51.542;7.230;2023-05-19T14:36:46;6.05;;;1.45;;
11496;SDS011;5805;51.542;7.230;2023-05-19T14:39:12;4.50;;;1.70;;
11496;SDS011;5805;51.542;7.230;2023-05-19T14:41:38;2.85;;;1.20;;
11496;SDS011;5805;51.542;7.230;2023-05-19T14:44:05;1.80;;;1.50;;
11496;SDS011;5805;51.542;7.230;2023-05-19T14:46:30;6.00;;;1.70;;
11496;SDS011;5805;51.542;7.230;2023-05-19T14:48:56;2.63;;;1.33;;
11496;SDS011;5805;51.542;7.230;2023-05-19T14:51:22;3.40;;;1.70;;
11496;SDS011;5805;51.542;7.230;2023-05-19T14:53:47;3.20;;;1.70;;
11496;SDS011;5805;51.542;7.230;2023-05-19T14:56:13;1.55;;;1.08;;
11496;SDS011;5805;51.542;7.230;2023-05-19T14:58:39;3.20;;;1.38;;
11496;SDS011;5805;51.542;7.230;2023-05-19T15:01:06;5.10;;;1.90;;